Versailles, IN

11:20 PM EDT on September 22, 2014 (GMT -0400)
RAWS BIG OAKS IN US | Change Station
CLOSE
Current Station
Personal Weather Station
Location: Canaan, IN
Elevation: 899 ft
Nearby Weather Stations

Elev 899 ft 38.93 °N, 85.36 °W | Updated 33 minutes ago

Clear
Clear
46 °F
Feels Like 46 °F
N
0
Wind Variable Wind from North
Gusts 2.0 mph

Today
High -- | Low -- °F
--% Chance of Precip.
Yesterday
High -- | Low -- °F
Precip. -- in
7:28 AM 7:38 PM
Waning Crescent, 1% visible
Pressure 30.26 in
Visibility 10.0 miles
Clouds Clear
Windchill 46 °F
Dew Point 45 °F
Humidity 98%
Rainfall 0.00 in
Snow Depth Not available.
UV 0 out of 12
Pollen 3.50 out of 12
Air Quality Not available.
Flu Activity Not available.
METAR KCVG 230252Z 34003KT 10SM CLR 12/06 A3027 RMK AO2 SLP247 T01170056 51014

More Conditions Fewer Conditions

Pressure 30.26 in
Visibility 10.0 miles
Clouds Clear
Windchill 46 °F
Dew Point 45 °F
Humidity 98%
Rainfall 0.00 in
Snow Depth Not available.
UV 0 out of 12
Pollen 3.50 out of 12
Air Quality Not available.
Flu Activity Not available.
METAR KCVG 230252Z 34003KT 10SM CLR 12/06 A3027 RMK AO2 SLP247 T01170056 51014

More Conditions Fewer Conditions

10-Day Weather Forecast

Almanac

Astronomy

Sep. 22, 2014 Rise Set
Actual Time 7:28 AM EDT 7:38 PM EDT
Civil Twilight 7:02 AM EDT 8:04 PM EDT
Nautical Twilight 6:30 AM EDT 8:35 PM EDT
Astronomical Twilight 5:59 AM EDT 9:07 PM EDT
Moon 5:57 AM EDT (9/22) 6:45 PM EDT (9/22)
Length of Visible Light 13h 02m
Length of Day
12h 09m
Tomorrow will be 2m 32s shorter.
Waning Crescent, 1% of the Moon is Illuminated
Today
Waning Crescent
Sep 24
New
Oct 1
First Quarter
Oct 8
Full
Oct 15
Last Quarter

Today's Extremes

State Highs State Lows

Community

WunderPhotos

Upload Photos

1,755,604 photos uploaded!

Nearby

Snow Depth

Station Depth Elevation
No new snow has been reported.

Earthquake Activity

City Distance Mag. Time & Date
No recent earthquake activity has been reported nearby.
Minimum magnitude displayed is 2.5.

Coastal Water Temperatures

Place Temperature
No Stations Reporting

Nearby Weather Stations